createdAt,value
2023-01-09T00:01:29.926Z,6.10
2023-01-09T00:03:58.058Z,6.10
2023-01-09T00:06:26.508Z,6.10
2023-01-09T00:08:57.384Z,6.10
2023-01-09T00:11:25.683Z,6.10
2023-01-09T00:13:53.842Z,6.10
2023-01-09T00:16:22.493Z,6.00
2023-01-09T00:18:50.615Z,6.10
2023-01-09T00:21:18.962Z,6.00
2023-01-09T00:23:47.379Z,6.00
2023-01-09T00:26:20.158Z,6.00
2023-01-09T00:28:49.318Z,6.00
2023-01-09T00:31:18.731Z,6.00
2023-01-09T00:33:50.045Z,5.90
2023-01-09T00:36:18.409Z,5.90
2023-01-09T00:38:46.533Z,5.90
2023-01-09T00:41:19.764Z,5.90
2023-01-09T00:43:51.202Z,6.00
2023-01-09T00:46:22.968Z,6.00
2023-01-09T00:48:51.552Z,6.00
2023-01-09T00:51:21.150Z,6.00
2023-01-09T00:53:50.482Z,6.00
2023-01-09T00:56:21.779Z,6.00
2023-01-09T00:58:50.383Z,6.00
2023-01-09T01:01:18.916Z,6.00
2023-01-09T01:03:47.148Z,6.10
2023-01-09T01:06:32.800Z,6.20
2023-01-09T01:09:00.987Z,6.30
2023-01-09T01:11:32.492Z,6.40
2023-01-09T01:14:01.396Z,6.40
2023-01-09T01:16:29.864Z,6.50
2023-01-09T01:18:58.276Z,6.60
2023-01-09T01:21:26.451Z,6.60
2023-01-09T01:23:54.894Z,6.70
2023-01-09T01:26:22.991Z,6.70
2023-01-09T01:28:52.603Z,6.80
2023-01-09T01:31:20.905Z,6.80
2023-01-09T01:33:49.361Z,7.00
2023-01-09T01:36:17.884Z,7.10
2023-01-09T01:38:47.994Z,7.10
2023-01-09T01:41:29.324Z,7.10
2023-01-09T01:44:05.415Z,7.10
2023-01-09T01:46:35.105Z,7.20
2023-01-09T01:49:08.217Z,7.20
2023-01-09T01:51:38.468Z,7.20
2023-01-09T01:54:10.388Z,7.10
2023-01-09T01:56:43.415Z,7.10
2023-01-09T01:59:19.839Z,6.90
2023-01-09T02:01:55.731Z,6.90
2023-01-09T02:04:24.081Z,6.80
2023-01-09T02:06:54.958Z,6.80
2023-01-09T02:09:25.424Z,6.70
2023-01-09T02:11:57.847Z,6.70
2023-01-09T02:14:32.498Z,6.60
2023-01-09T02:17:11.370Z,6.60
2023-01-09T02:20:16.615Z,6.60
2023-01-09T02:23:01.558Z,6.60
2023-01-09T02:25:49.093Z,6.60
2023-01-09T02:28:40.426Z,6.60
2023-01-09T02:31:15.158Z,6.60
2023-01-09T02:33:55.226Z,6.60
2023-01-09T02:36:30.162Z,6.60
2023-01-09T02:39:17.458Z,6.60
2023-01-09T02:41:53.068Z,6.60
2023-01-09T02:44:24.733Z,6.70
2023-01-09T02:47:07.019Z,6.70
2023-01-09T02:49:38.113Z,6.80
2023-01-09T02:52:26.328Z,6.70
2023-01-09T02:55:03.382Z,6.70
2023-01-09T02:57:48.015Z,6.80
2023-01-09T03:00:20.414Z,6.80
2023-01-09T03:02:53.770Z,6.80
2023-01-09T03:05:27.037Z,6.80
2023-01-09T03:08:01.327Z,6.90
2023-01-09T03:10:33.692Z,6.90
2023-01-09T03:13:03.748Z,7.00
2023-01-09T03:15:35.462Z,7.00
2023-01-09T03:18:08.341Z,7.10
2023-01-09T03:20:36.719Z,7.10
2023-01-09T03:23:07.615Z,7.10
2023-01-09T03:25:36.034Z,7.00
2023-01-09T03:28:07.402Z,7.00
2023-01-09T03:30:37.313Z,7.00
2023-01-09T03:33:06.753Z,7.00
2023-01-09T03:35:35.175Z,7.00
2023-01-09T03:38:03.349Z,7.00
2023-01-09T03:40:31.725Z,7.10
2023-01-09T03:42:59.830Z,7.10
2023-01-09T03:45:28.278Z,7.10
2023-01-09T03:47:58.483Z,7.10
2023-01-09T03:50:28.141Z,7.10
2023-01-09T03:52:56.233Z,7.10
2023-01-09T03:55:24.534Z,7.10
2023-01-09T03:57:53.262Z,7.10
2023-01-09T04:00:22.084Z,7.10
2023-01-09T04:02:50.489Z,7.10
2023-01-09T04:05:18.682Z,7.10
2023-01-09T04:07:48.294Z,7.10
2023-01-09T04:10:16.747Z,7.20
2023-01-09T04:12:45.225Z,7.20
2023-01-09T04:15:13.440Z,7.10
2023-01-09T04:17:41.778Z,7.20
2023-01-09T04:20:11.017Z,7.20
2023-01-09T04:22:39.305Z,7.20
2023-01-09T04:25:09.704Z,7.20
2023-01-09T04:27:38.479Z,7.10
2023-01-09T04:30:07.799Z,7.20
2023-01-09T04:32:36.200Z,7.20
2023-01-09T04:35:04.481Z,7.20
2023-01-09T04:37:32.915Z,7.10
2023-01-09T04:40:04.995Z,7.00
2023-01-09T04:42:34.801Z,7.00
2023-01-09T04:45:03.103Z,7.00
2023-01-09T04:47:31.664Z,7.00
2023-01-09T04:49:59.828Z,7.00
2023-01-09T04:52:28.633Z,7.00
2023-01-09T04:54:56.799Z,7.10
2023-01-09T04:57:25.185Z,7.10
2023-01-09T04:59:54.581Z,7.10
2023-01-09T05:02:22.965Z,7.10
2023-01-09T05:04:51.017Z,7.10
2023-01-09T05:07:19.360Z,7.10
2023-01-09T05:09:47.453Z,7.20
2023-01-09T05:12:15.676Z,7.20
2023-01-09T05:14:43.801Z,7.20
2023-01-09T05:17:13.612Z,7.20
2023-01-09T05:19:42.372Z,7.20
2023-01-09T05:22:10.781Z,7.30
2023-01-09T05:24:39.157Z,7.20
2023-01-09T05:27:07.365Z,7.20
2023-01-09T05:29:36.145Z,7.20
2023-01-09T05:32:04.414Z,7.20
2023-01-09T05:34:34.877Z,7.10
2023-01-09T05:37:03.024Z,7.10
2023-01-09T05:39:31.402Z,7.10
2023-01-09T05:41:59.501Z,7.10
2023-01-09T05:44:27.845Z,7.00
2023-01-09T05:46:55.913Z,7.00
2023-01-09T05:49:24.136Z,7.00
2023-01-09T05:51:53.628Z,6.90
2023-01-09T05:54:22.003Z,6.90
2023-01-09T05:56:50.068Z,6.90
2023-01-09T05:59:18.618Z,6.80
2023-01-09T06:01:46.729Z,6.70
2023-01-09T06:04:15.085Z,6.70
2023-01-09T06:06:43.230Z,6.60
2023-01-09T06:09:12.997Z,6.60
2023-01-09T06:11:41.064Z,6.50
2023-01-09T06:14:09.446Z,6.40
2023-01-09T06:16:37.600Z,6.20
2023-01-09T06:19:06.437Z,6.20
2023-01-09T06:21:34.743Z,6.10
2023-01-09T06:24:03.621Z,6.00
2023-01-09T06:26:33.110Z,5.90
2023-01-09T06:29:02.312Z,5.80
2023-01-09T06:31:30.518Z,5.80
2023-01-09T06:33:58.950Z,5.70
2023-01-09T06:36:27.100Z,5.60
2023-01-09T06:38:55.538Z,5.50
2023-01-09T06:41:23.649Z,5.50
2023-01-09T06:43:53.431Z,5.40
2023-01-09T06:46:21.602Z,5.30
2023-01-09T06:48:49.866Z,5.30
2023-01-09T06:51:18.201Z,5.20
2023-01-09T06:53:46.241Z,5.30
2023-01-09T06:56:14.671Z,5.30
2023-01-09T06:58:42.821Z,5.30
2023-01-09T07:01:12.652Z,5.30
2023-01-09T07:03:41.009Z,5.30
2023-01-09T07:06:09.331Z,5.20
2023-01-09T07:08:37.431Z,5.20
2023-01-09T07:11:05.838Z,5.20
2023-01-09T07:13:33.959Z,5.20
2023-01-09T07:16:03.443Z,5.10
2023-01-09T07:18:32.970Z,5.10
2023-01-09T07:21:01.418Z,5.00
2023-01-09T07:23:29.646Z,5.00
2023-01-09T07:25:58.484Z,5.00
2023-01-09T07:28:26.638Z,4.90
2023-01-09T07:30:55.240Z,5.00
2023-01-09T07:33:23.380Z,4.90
2023-01-09T07:35:54.000Z,4.90
2023-01-09T07:38:22.095Z,4.90
2023-01-09T07:40:50.464Z,4.90
2023-01-09T07:43:18.568Z,4.90
2023-01-09T07:45:47.853Z,4.90
2023-01-09T07:48:15.973Z,4.90
2023-01-09T07:50:44.402Z,4.90
2023-01-09T07:53:13.989Z,4.90
2023-01-09T07:55:44.116Z,4.90
2023-01-09T07:58:12.244Z,5.00
2023-01-09T08:00:40.509Z,5.10
2023-01-09T08:03:08.790Z,5.20
2023-01-09T08:05:37.107Z,5.30
2023-01-09T08:08:05.287Z,5.40
2023-01-09T08:10:35.062Z,5.50
2023-01-09T08:13:03.253Z,5.60
2023-01-09T08:15:33.471Z,5.60
2023-01-09T08:18:01.912Z,5.70
2023-01-09T08:20:30.182Z,5.70
2023-01-09T08:22:58.572Z,5.80
2023-01-09T08:25:26.790Z,5.80
2023-01-09T08:27:56.624Z,5.90
2023-01-09T08:30:24.687Z,5.90
2023-01-09T08:32:54.583Z,6.00
2023-01-09T08:35:22.702Z,5.90
2023-01-09T08:37:51.247Z,6.00
2023-01-09T08:40:19.630Z,5.90
2023-01-09T08:43:05.371Z,6.00
2023-01-09T08:45:52.887Z,6.00
2023-01-09T08:48:21.385Z,6.10
2023-01-09T08:50:49.548Z,6.20
2023-01-09T08:53:18.123Z,6.50
2023-01-09T08:55:46.198Z,6.60
2023-01-09T08:58:14.698Z,6.70
2023-01-09T09:00:44.234Z,6.90
2023-01-09T09:03:12.844Z,7.10
2023-01-09T09:05:40.978Z,7.20
2023-01-09T09:08:09.364Z,7.50
2023-01-09T09:10:37.560Z,7.60
2023-01-09T09:13:06.797Z,7.70
2023-01-09T09:15:34.957Z,7.60
2023-01-09T09:18:07.152Z,7.50
2023-01-09T09:20:37.346Z,7.30
2023-01-09T09:23:08.130Z,7.60
2023-01-09T09:25:38.256Z,7.70
2023-01-09T09:28:06.889Z,7.80
2023-01-09T09:30:35.428Z,7.80
2023-01-09T09:33:05.938Z,7.80
2023-01-09T09:35:35.052Z,7.70
2023-01-09T09:38:05.750Z,7.80
2023-01-09T09:40:58.254Z,7.90
2023-01-09T09:44:13.327Z,7.80
2023-01-09T09:46:45.925Z,7.80
2023-01-09T09:49:20.984Z,7.90
2023-01-09T09:52:02.396Z,7.90
2023-01-09T09:54:35.479Z,8.00
2023-01-09T09:57:05.971Z,8.30
2023-01-09T09:59:55.313Z,8.60
2023-01-09T10:02:28.837Z,8.50
2023-01-09T10:05:02.717Z,8.30
2023-01-09T10:07:41.746Z,8.20
2023-01-09T10:10:17.704Z,8.30
2023-01-09T10:12:53.583Z,8.10
2023-01-09T10:15:31.824Z,8.30
2023-01-09T10:18:13.975Z,8.40
2023-01-09T10:20:57.322Z,8.50
2023-01-09T10:23:43.388Z,8.30
2023-01-09T10:26:17.755Z,7.90
2023-01-09T10:29:00.813Z,7.90
2023-01-09T10:31:37.767Z,7.90
2023-01-09T10:34:19.003Z,7.90
2023-01-09T10:37:01.988Z,8.00
2023-01-09T10:39:38.502Z,8.10
2023-01-09T10:42:12.814Z,7.90
2023-01-09T10:44:48.501Z,8.00
2023-01-09T10:47:18.824Z,7.90
2023-01-09T10:49:49.097Z,7.90
2023-01-09T10:52:20.763Z,7.90
2023-01-09T10:54:57.138Z,7.90
2023-01-09T10:57:46.380Z,8.20
2023-01-09T11:00:23.381Z,8.90
2023-01-09T11:02:52.986Z,9.00
2023-01-09T11:05:24.169Z,8.90
2023-01-09T11:07:57.533Z,8.80
2023-01-09T11:10:46.755Z,8.70
2023-01-09T11:13:19.640Z,8.60
2023-01-09T11:15:48.351Z,8.70
2023-01-09T11:18:20.261Z,8.70
2023-01-09T11:20:49.512Z,8.70
2023-01-09T11:23:31.659Z,8.60
2023-01-09T11:26:01.840Z,8.40
2023-01-09T11:28:30.368Z,8.30
2023-01-09T11:31:03.986Z,8.20
2023-01-09T11:33:35.881Z,8.10
2023-01-09T11:36:08.234Z,8.00
2023-01-09T11:38:50.747Z,8.10
2023-01-09T11:41:21.213Z,7.90
2023-01-09T11:43:52.667Z,7.80
2023-01-09T11:46:35.635Z,7.90
2023-01-09T11:49:05.740Z,7.80
2023-01-09T11:51:36.806Z,7.80
2023-01-09T11:54:20.218Z,7.70
2023-01-09T11:56:49.139Z,7.80
2023-01-09T11:59:20.139Z,7.90
2023-01-09T12:02:24.030Z,7.80
2023-01-09T12:04:55.757Z,7.80
2023-01-09T12:07:50.904Z,7.70
2023-01-09T12:10:34.329Z,7.60
2023-01-09T12:13:08.943Z,7.70
2023-01-09T12:15:45.138Z,7.80
2023-01-09T12:18:25.339Z,7.80
2023-01-09T12:21:08.894Z,7.80
2023-01-09T12:23:51.302Z,7.80
2023-01-09T12:26:25.052Z,7.90
2023-01-09T12:29:15.403Z,7.70
2023-01-09T12:32:04.275Z,7.70
2023-01-09T12:34:53.638Z,7.70
2023-01-09T12:37:50.530Z,7.70
2023-01-09T12:40:34.959Z,7.80
2023-01-09T12:43:08.963Z,7.80
2023-01-09T12:45:47.544Z,7.80
2023-01-09T12:48:27.760Z,7.70
2023-01-09T12:51:14.044Z,7.80
2023-01-09T12:53:46.796Z,7.90
2023-01-09T12:56:19.509Z,8.20
2023-01-09T12:58:52.167Z,8.50
2023-01-09T13:01:25.600Z,8.60
2023-01-09T13:03:59.930Z,8.50
2023-01-09T13:06:29.845Z,8.60
2023-01-09T13:09:07.634Z,8.70
2023-01-09T13:11:42.345Z,8.70
2023-01-09T13:14:19.018Z,8.70
2023-01-09T13:16:50.953Z,8.50
2023-01-09T13:19:25.285Z,8.30
2023-01-09T13:21:53.763Z,8.20
2023-01-09T13:24:26.005Z,8.10
2023-01-09T13:26:57.501Z,8.10
2023-01-09T13:29:30.903Z,8.10
2023-01-09T13:32:17.587Z,8.10
2023-01-09T13:34:48.875Z,8.00
2023-01-09T13:37:24.617Z,7.80
2023-01-09T13:39:58.222Z,7.80
2023-01-09T13:42:49.769Z,7.80
2023-01-09T13:45:25.751Z,7.80
2023-01-09T13:48:25.086Z,7.80
2023-01-09T13:50:55.970Z,7.80
2023-01-09T13:53:48.368Z,7.80
2023-01-09T13:56:16.586Z,7.70
2023-01-09T13:59:02.571Z,7.70
2023-01-09T14:01:47.682Z,7.60
2023-01-09T14:04:42.131Z,7.60
2023-01-09T14:07:21.193Z,7.60
2023-01-09T14:09:55.670Z,7.60
2023-01-09T14:12:24.686Z,7.60
2023-01-09T14:14:55.085Z,7.60
2023-01-09T14:17:33.262Z,7.70
2023-01-09T14:20:05.843Z,7.80
2023-01-09T14:22:45.591Z,7.80
2023-01-09T14:25:27.492Z,7.80
2023-01-09T14:28:19.643Z,7.90
2023-01-09T14:31:12.078Z,7.80
2023-01-09T14:33:41.579Z,7.80
2023-01-09T14:36:18.885Z,7.80
2023-01-09T14:38:49.051Z,7.80
2023-01-09T14:41:45.905Z,7.80
2023-01-09T14:44:28.248Z,7.80
2023-01-09T14:47:00.453Z,7.70
2023-01-09T14:49:35.288Z,7.70
2023-01-09T14:52:09.367Z,7.70
2023-01-09T14:54:42.863Z,7.70
2023-01-09T14:57:25.832Z,7.70
2023-01-09T15:00:00.832Z,7.70
2023-01-09T15:02:32.541Z,7.70
2023-01-09T15:05:05.958Z,7.70
2023-01-09T15:07:40.677Z,7.70
2023-01-09T15:10:13.835Z,7.70
2023-01-09T15:12:42.460Z,7.70
2023-01-09T15:15:15.444Z,7.70
2023-01-09T15:17:46.456Z,7.70
2023-01-09T15:20:24.895Z,7.70
2023-01-09T15:22:55.268Z,7.70
2023-01-09T15:25:38.092Z,7.60
2023-01-09T15:28:28.161Z,7.60
2023-01-09T15:31:03.972Z,7.70
2023-01-09T15:33:33.423Z,7.70
2023-01-09T15:36:08.607Z,7.60
2023-01-09T15:38:37.081Z,7.60
2023-01-09T15:41:09.330Z,7.60
2023-01-09T15:43:44.080Z,7.60
2023-01-09T15:46:13.179Z,7.50
2023-01-09T15:48:41.612Z,7.50
2023-01-09T15:51:14.455Z,7.50
2023-01-09T15:53:44.158Z,7.50
2023-01-09T15:56:23.954Z,7.50
2023-01-09T15:58:54.046Z,7.40
2023-01-09T16:01:32.437Z,7.40
2023-01-09T16:04:07.076Z,7.40
2023-01-09T16:06:39.247Z,7.40
2023-01-09T16:09:17.348Z,7.40
2023-01-09T16:11:48.695Z,7.40
2023-01-09T16:14:21.894Z,7.40
2023-01-09T16:16:52.366Z,7.50
2023-01-09T16:19:45.062Z,7.50
2023-01-09T16:22:22.447Z,7.50
2023-01-09T16:24:53.651Z,7.50
2023-01-09T16:27:27.260Z,7.60
2023-01-09T16:29:58.225Z,7.60
2023-01-09T16:32:29.830Z,7.60
2023-01-09T16:34:59.923Z,7.60
2023-01-09T16:37:30.260Z,7.60
2023-01-09T16:40:26.930Z,7.60
2023-01-09T16:43:07.179Z,7.50
2023-01-09T16:45:37.485Z,7.60
2023-01-09T16:48:13.660Z,7.50
2023-01-09T16:50:42.422Z,7.50
2023-01-09T16:53:16.521Z,7.50
2023-01-09T16:55:45.029Z,7.50
2023-01-09T16:58:18.415Z,7.50
2023-01-09T17:00:48.086Z,7.40
2023-01-09T17:03:17.740Z,7.40
2023-01-09T17:05:46.219Z,7.40
2023-01-09T17:08:22.788Z,7.40
2023-01-09T17:10:51.165Z,7.40
2023-01-09T17:13:19.351Z,7.40
2023-01-09T17:15:48.085Z,7.30
2023-01-09T17:18:17.510Z,7.30
2023-01-09T17:20:47.693Z,7.40
2023-01-09T17:23:16.135Z,7.40
2023-01-09T17:26:03.185Z,7.50
2023-01-09T17:28:34.710Z,7.50
2023-01-09T17:31:05.947Z,7.50
2023-01-09T17:33:34.828Z,7.50
2023-01-09T17:36:03.629Z,7.50
2023-01-09T17:38:31.867Z,7.50
2023-01-09T17:41:01.500Z,7.50
2023-01-09T17:43:29.636Z,7.60
2023-01-09T17:46:00.028Z,7.50
2023-01-09T17:48:28.372Z,7.60
2023-01-09T17:50:56.693Z,7.60
2023-01-09T17:53:25.397Z,7.60
2023-01-09T17:55:53.555Z,7.60
2023-01-09T17:58:30.260Z,7.60
2023-01-09T18:00:58.878Z,7.60
2023-01-09T18:03:33.418Z,7.50
2023-01-09T18:06:01.940Z,7.50
2023-01-09T18:08:30.284Z,7.50
2023-01-09T18:10:58.496Z,7.50
2023-01-09T18:13:28.022Z,7.50
2023-01-09T18:15:56.310Z,7.50
2023-01-09T18:18:25.474Z,7.40
2023-01-09T18:20:53.923Z,7.40
2023-01-09T18:23:22.578Z,7.40
2023-01-09T18:25:50.786Z,7.50
2023-01-09T18:28:19.096Z,7.40
2023-01-09T18:30:51.621Z,7.50
2023-01-09T18:33:20.314Z,7.50
2023-01-09T18:35:48.383Z,7.50
2023-01-09T18:38:16.739Z,7.60
2023-01-09T18:40:46.687Z,7.60
2023-01-09T18:43:15.656Z,7.60
2023-01-09T18:45:43.812Z,7.60
2023-01-09T18:48:13.425Z,7.70
2023-01-09T18:50:41.704Z,7.70
2023-01-09T18:53:09.797Z,7.70
2023-01-09T18:55:38.690Z,7.70
2023-01-09T18:58:07.569Z,7.80
2023-01-09T19:00:36.634Z,7.80
2023-01-09T19:03:04.852Z,7.80
2023-01-09T19:05:34.713Z,7.70
2023-01-09T19:08:03.039Z,7.70
2023-01-09T19:10:31.131Z,7.70
2023-01-09T19:12:59.449Z,7.60
2023-01-09T19:15:29.831Z,7.60
2023-01-09T19:17:58.850Z,7.60
2023-01-09T19:20:26.946Z,7.60
2023-01-09T19:22:58.362Z,7.60
2023-01-09T19:25:26.600Z,7.60
2023-01-09T19:27:56.146Z,7.60
2023-01-09T19:30:24.379Z,7.50
2023-01-09T19:32:52.464Z,7.50
2023-01-09T19:35:21.521Z,7.40
2023-01-09T19:37:49.657Z,7.40
2023-01-09T19:40:19.353Z,7.30
2023-01-09T19:42:47.739Z,7.20
2023-01-09T19:45:16.199Z,7.10
2023-01-09T19:47:45.361Z,7.10
2023-01-09T19:50:14.073Z,7.00
2023-01-09T19:52:43.715Z,7.00
2023-01-09T19:55:13.641Z,7.00
2023-01-09T19:57:44.221Z,7.00
2023-01-09T20:00:13.647Z,7.00
2023-01-09T20:02:42.933Z,7.00
2023-01-09T20:05:11.403Z,7.00
2023-01-09T20:07:39.506Z,7.00
2023-01-09T20:10:08.786Z,7.10
2023-01-09T20:12:37.125Z,7.10
2023-01-09T20:15:10.033Z,7.10
2023-01-09T20:17:38.263Z,7.10
2023-01-09T20:20:07.417Z,7.20
2023-01-09T20:22:35.789Z,7.20
2023-01-09T20:25:03.910Z,7.20
2023-01-09T20:27:32.150Z,7.20
2023-01-09T20:30:00.282Z,7.20
2023-01-09T20:32:32.420Z,7.20
2023-01-09T20:35:02.346Z,7.10
2023-01-09T20:37:31.532Z,7.10
2023-01-09T20:39:59.863Z,7.20
2023-01-09T20:42:27.991Z,7.20
2023-01-09T20:44:57.181Z,7.20
2023-01-09T20:47:25.931Z,7.20
2023-01-09T20:49:55.426Z,7.20
2023-01-09T20:52:23.568Z,7.20
2023-01-09T20:54:51.868Z,7.20
2023-01-09T20:57:19.936Z,7.20
2023-01-09T20:59:48.305Z,7.30
2023-01-09T21:02:16.589Z,7.20
2023-01-09T21:04:45.900Z,7.20
2023-01-09T21:07:15.929Z,7.20
2023-01-09T21:09:44.117Z,7.30
2023-01-09T21:12:27.590Z,7.30
2023-01-09T21:14:55.953Z,7.30
2023-01-09T21:17:24.653Z,7.30
2023-01-09T21:19:52.825Z,7.30
2023-01-09T21:22:22.268Z,7.40
2023-01-09T21:24:51.328Z,7.30
2023-01-09T21:27:19.831Z,7.30
2023-01-09T21:29:48.053Z,7.30
2023-01-09T21:32:16.592Z,7.30
2023-01-09T21:34:44.831Z,7.30
2023-01-09T21:37:13.029Z,7.30
2023-01-09T21:39:42.773Z,7.20
2023-01-09T21:42:28.983Z,7.20
2023-01-09T21:45:14.568Z,7.10
2023-01-09T21:47:42.790Z,7.00
2023-01-09T21:50:11.856Z,6.90
2023-01-09T21:52:40.070Z,6.90
2023-01-09T21:55:10.620Z,6.90
2023-01-09T21:57:38.870Z,6.80
2023-01-09T22:00:08.607Z,6.90
2023-01-09T22:02:41.082Z,6.90
2023-01-09T22:05:10.309Z,7.00
2023-01-09T22:07:38.415Z,7.00
2023-01-09T22:10:07.488Z,7.00
2023-01-09T22:12:37.079Z,6.90
2023-01-09T22:15:06.149Z,6.90
2023-01-09T22:17:34.305Z,6.80
2023-01-09T22:20:02.538Z,6.70
2023-01-09T22:22:30.893Z,6.70
2023-01-09T22:24:59.684Z,6.60
2023-01-09T22:27:27.938Z,6.60
2023-01-09T22:29:57.384Z,6.50
2023-01-09T22:32:25.610Z,6.60
2023-01-09T22:34:53.933Z,6.60
2023-01-09T22:37:22.088Z,6.70
2023-01-09T22:39:50.219Z,6.70
2023-01-09T22:42:18.366Z,6.80
2023-01-09T22:44:46.588Z,6.80
2023-01-09T22:47:16.121Z,6.80
2023-01-09T22:49:52.642Z,6.90
2023-01-09T22:52:21.406Z,6.90
2023-01-09T22:54:49.771Z,6.90
2023-01-09T22:57:17.917Z,6.90
2023-01-09T22:59:46.120Z,6.70
2023-01-09T23:02:15.726Z,6.60
2023-01-09T23:04:44.041Z,6.40
2023-01-09T23:07:12.416Z,6.30
2023-01-09T23:09:40.557Z,6.20
2023-01-09T23:12:09.097Z,6.20
2023-01-09T23:14:39.064Z,6.20
2023-01-09T23:17:09.663Z,6.10
2023-01-09T23:19:40.496Z,6.10
2023-01-09T23:22:09.096Z,6.20
2023-01-09T23:24:37.544Z,6.10
2023-01-09T23:27:05.752Z,6.10
2023-01-09T23:29:38.751Z,6.00
2023-01-09T23:32:07.919Z,5.90
2023-01-09T23:34:36.114Z,5.80
2023-01-09T23:37:08.936Z,5.70
2023-01-09T23:39:37.435Z,5.60
2023-01-09T23:42:22.845Z,5.60
2023-01-09T23:44:51.203Z,5.50
2023-01-09T23:47:19.327Z,5.50
2023-01-09T23:49:47.491Z,5.50
2023-01-09T23:52:17.136Z,5.50
2023-01-09T23:54:45.228Z,5.50
2023-01-09T23:57:13.449Z,5.50
2023-01-09T23:59:41.695Z,5.50
